Time;durP1;ratioP1;P1;durP2;ratioP2;P2;SDS_P1;SDS_P2;PMS_P1;PMS_P2;Temp;Humidity;BMP_temperature;BMP_pressure;BME280_temperature;BME280_humidity;BME280_pressure;Samples;Min_cycle;Max_cycle;Signal;HPM_P1;HPM_P2
2021/04/03 00:02:13;;;;;;;13.68;5.18;;;;;;;;;;5013404;28;20087;-58
2021/04/03 00:04:39;;;;;;;17.10;5.60;;;;;;;;;;5014251;28;20037;-58
2021/04/03 00:07:05;;;;;;;12.07;4.90;;;;;;;;;;5012959;28;20053;-54
2021/04/03 00:09:32;;;;;;;14.68;5.40;;;;;;;;;;5013729;28;20053;-58
2021/04/03 00:11:58;;;;;;;16.77;5.35;;;;;;;;;;5013995;28;20425;-59
2021/04/03 00:14:24;;;;;;;18.67;6.45;;;;;;;;;;5014288;28;20389;-60
2021/04/03 00:16:50;;;;;;;17.08;5.68;;;;;;;;;;5012913;28;20113;-58
2021/04/03 00:19:16;;;;;;;18.15;5.10;;;;;;;;;;5013429;28;20113;-58
2021/04/03 00:21:42;;;;;;;13.18;6.18;;;;;;;;;;5013323;28;20494;-59
2021/04/03 00:24:08;;;;;;;19.05;7.60;;;;;;;;;;5013665;28;20042;-57
2021/04/03 00:26:34;;;;;;;15.85;5.40;;;;;;;;;;5013408;28;20058;-59
2021/04/03 00:29:00;;;;;;;18.27;5.95;;;;;;;;;;5013837;28;20533;-58
2021/04/03 00:31:26;;;;;;;14.73;6.03;;;;;;;;;;5012857;28;20026;-57
2021/04/03 00:33:53;;;;;;;15.48;5.50;;;;;;;;;;5013344;28;20030;-57
2021/04/03 00:36:19;;;;;;;15.90;6.03;;;;;;;;;;5013231;28;20038;-59
2021/04/03 00:38:45;;;;;;;17.08;5.60;;;;;;;;;;5013858;28;20054;-58
2021/04/03 00:41:11;;;;;;;18.08;6.20;;;;;;;;;;5013225;28;20585;-58
2021/04/03 00:43:37;;;;;;;13.98;5.45;;;;;;;;;;5013330;28;20021;-59
2021/04/03 00:46:03;;;;;;;23.35;6.15;;;;;;;;;;5013065;28;20052;-58
2021/04/03 00:48:29;;;;;;;21.77;6.80;;;;;;;;;;5013404;28;20030;-59
2021/04/03 00:50:55;;;;;;;18.10;6.47;;;;;;;;;;5006746;28;20040;-58
2021/04/03 00:53:22;;;;;;;19.05;6.63;;;;;;;;;;5013008;28;20385;-59
2021/04/03 00:55:48;;;;;;;22.67;6.50;;;;;;;;;;5012838;28;20421;-58
2021/04/03 00:58:16;;;;;;;23.13;6.72;;;;;;;;;;5012673;28;20124;-59
2021/04/03 01:00:42;;;;;;;21.33;7.05;;;;;;;;;;5001202;28;20096;-58
2021/04/03 01:03:08;;;;;;;15.13;5.70;;;;;;;;;;5012778;28;20541;-57
2021/04/03 01:05:35;;;;;;;20.60;6.45;;;;;;;;;;5013033;28;20093;-58
2021/04/03 01:08:01;;;;;;;17.80;6.47;;;;;;;;;;5012517;28;20037;-58
2021/04/03 01:10:35;;;;;;;15.75;6.38;;;;;;;;;;5012738;28;20042;-59
2021/04/03 01:13:14;;;;;;;16.98;6.35;;;;;;;;;;5012379;28;20046;-58
2021/04/03 01:15:40;;;;;;;19.58;6.68;;;;;;;;;;5012862;28;20033;-58
2021/04/03 01:18:25;;;;;;;20.73;6.95;;;;;;;;;;5011815;28;20044;-57
2021/04/03 01:21:17;;;;;;;16.33;6.53;;;;;;;;;;5011236;28;20034;-58
2021/04/03 01:24:06;;;;;;;14.30;5.82;;;;;;;;;;4980398;28;20038;-57
2021/04/03 01:26:45;;;;;;;16.85;6.60;;;;;;;;;;5012256;28;20087;-56
2021/04/03 01:29:20;;;;;;;20.00;6.90;;;;;;;;;;5012587;28;20049;-58
2021/04/03 01:31:47;;;;;;;17.10;6.50;;;;;;;;;;5012060;28;20026;-58
2021/04/03 01:34:19;;;;;;;24.50;7.50;;;;;;;;;;5012347;28;20049;-55
2021/04/03 01:36:45;;;;;;;20.95;6.78;;;;;;;;;;5012559;28;20109;-57
2021/04/03 01:39:14;;;;;;;17.40;7.10;;;;;;;;;;5012054;28;20038;-57
2021/04/03 01:41:42;;;;;;;18.85;7.18;;;;;;;;;;5012028;28;20467;-58
2021/04/03 01:44:10;;;;;;;20.25;6.93;;;;;;;;;;5012638;28;20053;-58
2021/04/03 01:46:37;;;;;;;15.38;7.22;;;;;;;;;;5011972;28;20095;-57
2021/04/03 01:49:11;;;;;;;18.42;6.28;;;;;;;;;;5011953;28;20497;-58
2021/04/03 01:51:38;;;;;;;22.00;6.85;;;;;;;;;;5011951;28;20057;-57
2021/04/03 01:54:06;;;;;;;23.13;7.07;;;;;;;;;;5012509;28;20504;-54
2021/04/03 01:56:32;;;;;;;19.65;7.03;;;;;;;;;;5011176;28;20030;-58
2021/04/03 01:59:00;;;;;;;18.58;7.25;;;;;;;;;;5012490;28;20105;-58
2021/04/03 02:01:26;;;;;;;14.50;6.90;;;;;;;;;;5011233;28;20018;-57
2021/04/03 02:03:53;;;;;;;15.45;7.00;;;;;;;;;;5012077;28;20037;-60
2021/04/03 02:06:19;;;;;;;19.30;7.22;;;;;;;;;;5011421;28;20030;-58
2021/04/03 02:08:48;;;;;;;22.88;7.40;;;;;;;;;;5011854;28;20046;-56
2021/04/03 02:11:14;;;;;;;21.13;7.57;;;;;;;;;;5011871;28;20030;-57
2021/04/03 02:13:41;;;;;;;13.13;7.00;;;;;;;;;;5012644;28;20025;-57
2021/04/03 02:16:07;;;;;;;17.30;6.78;;;;;;;;;;5018386;28;20044;-55
2021/04/03 02:18:33;;;;;;;14.02;6.47;;;;;;;;;;5018428;28;20482;-58
2021/04/03 02:21:09;;;;;;;17.75;7.18;;;;;;;;;;5017218;28;20053;-55
2021/04/03 02:23:36;;;;;;;18.35;7.07;;;;;;;;;;5017925;28;20034;-56
2021/04/03 02:26:05;;;;;;;14.13;6.78;;;;;;;;;;5018258;28;20041;-57
2021/04/03 02:28:33;;;;;;;16.88;7.15;;;;;;;;;;5018543;28;20022;-57
2021/04/03 02:30:59;;;;;;;19.25;7.28;;;;;;;;;;5018622;28;20045;-57
2021/04/03 02:33:25;;;;;;;24.55;8.15;;;;;;;;;;5018387;28;20030;-58
2021/04/03 02:35:51;;;;;;;16.77;8.07;;;;;;;;;;5018257;28;20124;-59
2021/04/03 02:38:18;;;;;;;16.27;6.80;;;;;;;;;;5018447;28;20448;-58
2021/04/03 02:40:44;;;;;;;19.55;7.13;;;;;;;;;;5016848;28;20049;-58
2021/04/03 02:43:22;;;;;;;22.75;7.65;;;;;;;;;;5018242;28;20103;-56
2021/04/03 02:45:55;;;;;;;18.92;7.53;;;;;;;;;;4999974;28;20718;-58
2021/04/03 02:48:21;;;;;;;16.77;7.93;;;;;;;;;;5018204;28;20030;-58
2021/04/03 02:50:51;;;;;;;18.95;8.45;;;;;;;;;;5018636;28;20445;-57
2021/04/03 02:53:19;;;;;;;19.70;7.32;;;;;;;;;;4996081;28;20037;-56
2021/04/03 02:55:49;;;;;;;18.83;7.53;;;;;;;;;;5009820;28;20088;-58
2021/04/03 02:58:17;;;;;;;20.50;8.07;;;;;;;;;;5018144;28;20080;-59
2021/04/03 03:00:45;;;;;;;21.58;7.72;;;;;;;;;;5017632;28;20429;-58
2021/04/03 03:03:12;;;;;;;25.27;7.88;;;;;;;;;;5016817;28;20049;-55
2021/04/03 03:05:38;;;;;;;24.63;8.23;;;;;;;;;;5017946;28;20038;-56
2021/04/03 03:08:05;;;;;;;24.13;8.18;;;;;;;;;;5015937;28;20466;-57
2021/04/03 03:10:31;;;;;;;21.38;8.18;;;;;;;;;;5017574;28;20482;-58
2021/04/03 03:12:58;;;;;;;17.02;7.70;;;;;;;;;;5018160;28;20101;-57
2021/04/03 03:15:26;;;;;;;20.30;8.23;;;;;;;;;;5018015;28;20026;-57
2021/04/03 03:17:52;;;;;;;22.27;8.00;;;;;;;;;;5017596;28;20084;-57
2021/04/03 03:20:18;;;;;;;16.90;8.00;;;;;;;;;;5018107;28;20044;-57
2021/04/03 03:22:44;;;;;;;18.92;8.55;;;;;;;;;;5018148;28;20101;-57
2021/04/03 03:25:10;;;;;;;27.13;8.85;;;;;;;;;;5013940;28;20050;-56
2021/04/03 03:27:38;;;;;;;27.15;8.57;;;;;;;;;;5014024;28;20026;-58
2021/04/03 03:30:05;;;;;;;20.30;8.90;;;;;;;;;;5015068;28;20441;-56
2021/04/03 03:32:31;;;;;;;22.67;8.23;;;;;;;;;;5014287;28;20033;-56
2021/04/03 03:34:57;;;;;;;19.55;9.15;;;;;;;;;;5012125;28;20022;-56
2021/04/03 03:37:25;;;;;;;24.75;8.10;;;;;;;;;;5014447;28;20022;-57
2021/04/03 03:39:51;;;;;;;23.48;8.45;;;;;;;;;;5014171;28;20026;-58
2021/04/03 03:42:17;;;;;;;19.77;8.88;;;;;;;;;;5014667;28;20026;-59
2021/04/03 03:44:44;;;;;;;19.77;8.48;;;;;;;;;;5014547;28;20041;-57
2021/04/03 03:47:10;;;;;;;25.08;8.70;;;;;;;;;;5013966;28;20030;-57
2021/04/03 03:49:36;;;;;;;21.58;8.27;;;;;;;;;;5013970;28;20037;-57
2021/04/03 03:52:02;;;;;;;20.55;8.82;;;;;;;;;;5014725;28;20034;-57
2021/04/03 03:54:28;;;;;;;22.20;8.50;;;;;;;;;;5014574;28;20448;-58
2021/04/03 03:56:55;;;;;;;18.05;7.53;;;;;;;;;;5014075;28;20097;-57
2021/04/03 03:59:21;;;;;;;26.48;8.63;;;;;;;;;;5014087;28;20037;-57
2021/04/03 04:01:46;;;;;;;20.25;7.57;;;;;;;;;;5014078;28;20433;-57
2021/04/03 04:04:12;;;;;;;23.60;8.63;;;;;;;;;;5014119;28;20025;-56
2021/04/03 04:06:39;;;;;;;24.13;9.18;;;;;;;;;;5014083;28;20092;-56
2021/04/03 04:09:05;;;;;;;18.38;8.10;;;;;;;;;;5014018;28;20088;-58
2021/04/03 04:11:31;;;;;;;22.20;7.90;;;;;;;;;;5014079;28;20025;-57
2021/04/03 04:13:57;;;;;;;21.90;7.80;;;;;;;;;;4996351;28;20025;-58
2021/04/03 04:16:23;;;;;;;20.98;8.55;;;;;;;;;;5012639;28;20038;-55
2021/04/03 04:18:49;;;;;;;21.25;8.38;;;;;;;;;;5013946;28;20046;-55
2021/04/03 04:21:15;;;;;;;20.63;8.25;;;;;;;;;;5013938;28;20139;-55
2021/04/03 04:23:41;;;;;;;23.27;8.57;;;;;;;;;;5013521;28;20504;-56
2021/04/03 04:26:07;;;;;;;24.02;7.72;;;;;;;;;;4991340;28;20128;-57
2021/04/03 04:28:36;;;;;;;15.60;7.65;;;;;;;;;;4996109;28;20025;-58
2021/04/03 04:31:03;;;;;;;19.92;8.02;;;;;;;;;;5013952;28;20517;-58
2021/04/03 04:33:29;;;;;;;24.88;7.95;;;;;;;;;;5013718;28;20084;-55
2021/04/03 04:35:55;;;;;;;21.45;8.50;;;;;;;;;;5013075;28;20030;-56
2021/04/03 04:38:21;;;;;;;17.23;7.90;;;;;;;;;;5013182;28;20045;-58
2021/04/03 04:40:47;;;;;;;17.63;7.80;;;;;;;;;;5013661;28;20056;-57
2021/04/03 04:43:13;;;;;;;22.25;8.32;;;;;;;;;;5013553;28;20474;-53
2021/04/03 04:45:39;;;;;;;25.85;8.73;;;;;;;;;;5013267;28;20029;-57
2021/04/03 04:48:05;;;;;;;21.08;8.93;;;;;;;;;;5012823;28;20096;-54
2021/04/03 04:50:31;;;;;;;20.73;9.10;;;;;;;;;;5013334;28;20034;-56
2021/04/03 04:52:57;;;;;;;19.60;8.20;;;;;;;;;;5013339;28;20032;-57
2021/04/03 04:55:23;;;;;;;22.38;7.65;;;;;;;;;;5012482;28;20382;-58
2021/04/03 04:57:49;;;;;;;18.88;8.30;;;;;;;;;;5012519;28;20030;-56
2021/04/03 05:00:15;;;;;;;21.00;9.00;;;;;;;;;;5012542;28;20038;-58
2021/04/03 05:02:41;;;;;;;20.92;7.90;;;;;;;;;;5013250;28;20109;-58
2021/04/03 05:05:07;;;;;;;16.38;8.20;;;;;;;;;;5012761;28;20033;-55
2021/04/03 05:07:33;;;;;;;19.73;7.93;;;;;;;;;;5012341;28;20084;-57
2021/04/03 05:09:59;;;;;;;20.00;8.50;;;;;;;;;;5012838;28;20026;-58
2021/04/03 05:12:25;;;;;;;19.83;9.20;;;;;;;;;;4995049;28;20030;-57
2021/04/03 05:14:51;;;;;;;18.92;7.30;;;;;;;;;;5013074;28;20026;-58
2021/04/03 05:17:19;;;;;;;17.20;8.25;;;;;;;;;;5012293;28;21346;-57
2021/04/03 05:19:45;;;;;;;23.15;7.78;;;;;;;;;;5010057;28;20112;-57
2021/04/03 05:22:11;;;;;;;22.42;7.65;;;;;;;;;;5012220;28;20117;-57
2021/04/03 05:24:37;;;;;;;15.75;7.28;;;;;;;;;;5008060;28;20038;-57
2021/04/03 05:27:03;;;;;;;27.20;8.98;;;;;;;;;;5008593;28;20033;-57
2021/04/03 05:29:29;;;;;;;17.83;7.93;;;;;;;;;;5012580;28;20022;-57
2021/04/03 05:31:55;;;;;;;23.20;8.73;;;;;;;;;;5012648;28;20650;-54
2021/04/03 05:34:21;;;;;;;16.17;8.07;;;;;;;;;;5005529;28;20096;-54
2021/04/03 05:36:47;;;;;;;18.35;7.72;;;;;;;;;;5012208;28;20032;-57
2021/04/03 05:39:13;;;;;;;24.70;7.72;;;;;;;;;;5012488;28;20045;-57
2021/04/03 05:41:39;;;;;;;19.45;8.50;;;;;;;;;;5011811;28;20034;-59
2021/04/03 05:44:05;;;;;;;19.23;7.93;;;;;;;;;;5011628;28;20108;-58
2021/04/03 05:46:31;;;;;;;21.92;8.80;;;;;;;;;;5011159;28;20446;-56
2021/04/03 05:48:59;;;;;;;19.77;8.27;;;;;;;;;;5011799;28;20030;-56
2021/04/03 05:51:25;;;;;;;24.70;8.52;;;;;;;;;;5011924;28;20116;-57
2021/04/03 05:53:51;;;;;;;17.38;7.65;;;;;;;;;;5011543;28;20022;-57
2021/04/03 05:56:18;;;;;;;19.83;8.02;;;;;;;;;;5012142;28;20109;-59
2021/04/03 05:58:45;;;;;;;19.77;8.30;;;;;;;;;;4995405;28;20026;-58
2021/04/03 06:01:11;;;;;;;18.73;7.97;;;;;;;;;;5011292;28;20382;-58
2021/04/03 06:03:37;;;;;;;19.63;7.65;;;;;;;;;;5009763;28;20524;-55
2021/04/03 06:06:03;;;;;;;16.67;7.75;;;;;;;;;;5011165;28;20041;-54
2021/04/03 06:08:33;;;;;;;19.30;7.68;;;;;;;;;;5012264;28;20140;-54
2021/04/03 06:11:14;;;;;;;17.88;7.97;;;;;;;;;;5012397;28;20065;-57
2021/04/03 06:13:41;;;;;;;16.17;7.90;;;;;;;;;;4993932;28;20435;-55
2021/04/03 06:16:26;;;;;;;17.42;6.72;;;;;;;;;;5011734;28;20470;-56
2021/04/03 06:19:13;;;;;;;18.73;6.50;;;;;;;;;;5006445;28;20025;-55
2021/04/03 06:21:40;;;;;;;18.85;7.22;;;;;;;;;;5011933;28;20033;-53
2021/04/03 06:24:24;;;;;;;16.02;7.28;;;;;;;;;;5010781;28;20083;-54
2021/04/03 06:26:54;;;;;;;14.02;5.72;;;;;;;;;;5005144;28;20369;-56
2021/04/03 06:29:21;;;;;;;11.32;5.63;;;;;;;;;;5011592;28;20421;-57
2021/04/03 06:31:52;;;;;;;14.68;5.90;;;;;;;;;;5011681;28;20036;-57
2021/04/03 06:34:37;;;;;;;9.95;5.53;;;;;;;;;;5012075;28;20097;-57
2021/04/03 06:37:04;;;;;;;10.20;4.45;;;;;;;;;;5010959;28;20120;-56
2021/04/03 06:39:31;;;;;;;19.23;5.47;;;;;;;;;;5009571;28;20475;-58
2021/04/03 06:41:57;;;;;;;11.80;5.20;;;;;;;;;;5011950;28;20033;-59
2021/04/03 06:44:24;;;;;;;13.05;5.70;;;;;;;;;;5011326;28;20485;-59
2021/04/03 06:46:51;;;;;;;10.10;5.05;;;;;;;;;;5011270;28;20050;-59
2021/04/03 06:49:17;;;;;;;12.65;4.53;;;;;;;;;;5011374;28;20084;-58
2021/04/03 06:51:44;;;;;;;15.20;4.97;;;;;;;;;;5011284;28;20418;-57
2021/04/03 06:54:11;;;;;;;8.50;4.53;;;;;;;;;;4989485;28;20026;-58
2021/04/03 06:56:38;;;;;;;9.65;3.80;;;;;;;;;;5011692;28;20033;-57
2021/04/03 06:59:08;;;;;;;9.38;3.67;;;;;;;;;;5010864;28;20490;-60
2021/04/03 07:01:42;;;;;;;12.23;3.45;;;;;;;;;;5004467;28;20091;-59
2021/04/03 07:04:20;;;;;;;8.70;3.67;;;;;;;;;;5007467;28;20034;-58
2021/04/03 07:06:47;;;;;;;11.02;3.38;;;;;;;;;;5013712;28;20034;-59
2021/04/03 07:09:13;;;;;;;7.07;2.85;;;;;;;;;;5009532;28;20053;-60
2021/04/03 07:11:40;;;;;;;6.70;2.97;;;;;;;;;;5014942;28;20032;-59
2021/04/03 07:14:06;;;;;;;7.88;2.53;;;;;;;;;;5015109;28;20038;-60
2021/04/03 07:16:32;;;;;;;7.32;2.25;;;;;;;;;;5014405;28;20033;-59
2021/04/03 07:18:58;;;;;;;6.82;2.50;;;;;;;;;;5014374;28;20119;-58
2021/04/03 07:21:24;;;;;;;7.25;3.05;;;;;;;;;;5015004;28;20040;-58
2021/04/03 07:23:51;;;;;;;6.97;2.72;;;;;;;;;;5012919;28;20042;-60
2021/04/03 07:26:18;;;;;;;5.55;2.42;;;;;;;;;;5014759;28;20087;-58
2021/04/03 07:28:45;;;;;;;6.38;2.10;;;;;;;;;;5013757;28;20025;-59
2021/04/03 07:31:11;;;;;;;6.13;2.10;;;;;;;;;;5014705;28;20034;-59
2021/04/03 07:33:50;;;;;;;4.93;1.92;;;;;;;;;;5009758;28;20045;-57
2021/04/03 07:36:31;;;;;;;4.65;2.55;;;;;;;;;;5013461;28;20030;-57
2021/04/03 07:38:57;;;;;;;8.13;1.90;;;;;;;;;;4993062;28;20029;-57
2021/04/03 07:41:23;;;;;;;4.55;1.85;;;;;;;;;;5013685;28;20069;-59
2021/04/03 07:43:49;;;;;;;4.63;1.98;;;;;;;;;;5012779;28;20486;-57
2021/04/03 07:46:21;;;;;;;5.18;1.85;;;;;;;;;;5014391;28;20043;-59
2021/04/03 07:48:48;;;;;;;5.25;1.77;;;;;;;;;;5010702;28;20025;-58
2021/04/03 07:51:20;;;;;;;3.20;1.65;;;;;;;;;;5013240;28;20393;-59
2021/04/03 07:53:47;;;;;;;3.85;1.45;;;;;;;;;;5012889;28;20131;-58
2021/04/03 07:56:14;;;;;;;2.83;1.65;;;;;;;;;;5010845;28;20536;-60
2021/04/03 07:58:48;;;;;;;2.75;1.20;;;;;;;;;;5012149;28;20113;-58
2021/04/03 08:01:13;;;;;;;;;;;;;;;;;;5011990;28;20030;-60
2021/04/03 08:03:40;;;;;;;4.05;1.63;;;;;;;;;;5013669;28;20351;-59
2021/04/03 08:06:07;;;;;;;6.80;1.75;;;;;;;;;;5001466;28;20520;-59
2021/04/03 08:08:34;;;;;;;3.38;1.40;;;;;;;;;;5014180;28;20109;-59
2021/04/03 08:11:13;;;;;;;2.47;1.40;;;;;;;;;;5013324;28;20150;-60
2021/04/03 08:13:47;;;;;;;6.45;1.38;;;;;;;;;;5012082;28;20465;-60
2021/04/03 08:16:13;;;;;;;6.07;1.58;;;;;;;;;;4991403;28;20122;-59
2021/04/03 08:18:41;;;;;;;5.78;1.40;;;;;;;;;;5011368;28;20034;-60
2021/04/03 08:21:07;;;;;;;6.38;1.20;;;;;;;;;;5012445;28;20038;-59
2021/04/03 08:23:48;;;;;;;3.33;1.17;;;;;;;;;;5013333;28;20052;-60
2021/04/03 08:26:15;;;;;;;8.60;1.50;;;;;;;;;;5009228;28;20076;-59
2021/04/03 08:28:41;;;;;;;3.60;1.40;;;;;;;;;;5012218;28;20494;-59
2021/04/03 08:31:19;;;;;;;4.32;1.00;;;;;;;;;;5012489;28;20498;-59
2021/04/03 08:33:45;;;;;;;4.25;1.23;;;;;;;;;;5012487;28;20057;-60
2021/04/03 08:36:12;;;;;;;2.20;0.98;;;;;;;;;;5013582;28;20084;-58
2021/04/03 08:38:40;;;;;;;7.13;1.35;;;;;;;;;;5013151;28;20474;-59
2021/04/03 08:41:06;;;;;;;3.13;1.00;;;;;;;;;;5012722;28;20041;-60
2021/04/03 08:43:33;;;;;;;4.65;1.08;;;;;;;;;;5012403;28;20060;-60
2021/04/03 08:46:03;;;;;;;4.20;0.80;;;;;;;;;;5010797;28;20371;-59
2021/04/03 08:48:37;;;;;;;3.95;1.20;;;;;;;;;;5011239;28;21778;-60
2021/04/03 08:51:04;;;;;;;2.25;0.95;;;;;;;;;;5006022;28;20041;-59
2021/04/03 08:53:37;;;;;;;2.53;0.85;;;;;;;;;;5011934;28;20037;-60
2021/04/03 08:56:03;;;;;;;5.50;0.85;;;;;;;;;;5010845;28;20053;-59
2021/04/03 08:58:29;;;;;;;2.65;1.05;;;;;;;;;;5012160;28;20034;-59
2021/04/03 09:00:55;;;;;;;6.65;1.05;;;;;;;;;;5012390;28;20032;-58
2021/04/03 09:03:21;;;;;;;3.10;1.13;;;;;;;;;;5012821;28;20069;-58
2021/04/03 09:05:48;;;;;;;2.45;0.90;;;;;;;;;;5012143;28;20105;-58
2021/04/03 09:08:25;;;;;;;2.00;1.10;;;;;;;;;;5012162;28;20022;-56
2021/04/03 09:10:58;;;;;;;2.10;1.08;;;;;;;;;;5007809;28;20026;-58
2021/04/03 09:13:31;;;;;;;4.18;0.95;;;;;;;;;;5011991;28;20481;-55
2021/04/03 09:16:06;;;;;;;2.55;1.23;;;;;;;;;;5007281;28;20045;-57
2021/04/03 09:18:32;;;;;;;2.15;0.82;;;;;;;;;;5005743;28;20086;-59
2021/04/03 09:20:58;;;;;;;1.15;0.63;;;;;;;;;;5004700;28;20085;-58
2021/04/03 09:23:24;;;;;;;5.50;0.90;;;;;;;;;;5010826;28;20030;-60
2021/04/03 09:26:02;;;;;;;1.02;0.50;;;;;;;;;;5010455;28;20498;-58
2021/04/03 09:28:41;;;;;;;2.22;0.95;;;;;;;;;;5011917;28;20033;-59
2021/04/03 09:31:09;;;;;;;3.10;1.00;;;;;;;;;;5011181;28;20026;-59
2021/04/03 09:33:45;;;;;;;3.45;0.65;;;;;;;;;;5012416;28;20448;-60
2021/04/03 09:36:12;;;;;;;2.33;0.68;;;;;;;;;;5010423;28;20026;-57
2021/04/03 09:38:38;;;;;;;2.72;0.90;;;;;;;;;;5012469;28;20026;-60
2021/04/03 09:41:42;;;;;;;2.03;0.80;;;;;;;;;;5011621;28;20022;-59
2021/04/03 09:44:08;;;;;;;;;;;;;;;;;;4925252;29;20118;-59
2021/04/03 09:46:34;;;;;;;1.33;0.80;;;;;;;;;;4930311;29;20027;-59
2021/04/03 09:49:01;;;;;;;2.17;1.02;;;;;;;;;;4969509;28;20041;-58
2021/04/03 09:51:26;;;;;;;3.15;0.85;;;;;;;;;;5012113;28;20540;-60
2021/04/03 09:53:53;;;;;;;1.27;0.63;;;;;;;;;;5011741;28;20053;-60
2021/04/03 09:56:19;;;;;;;2.95;0.75;;;;;;;;;;5011163;28;20034;-60
2021/04/03 09:58:45;;;;;;;6.03;0.98;;;;;;;;;;5011864;28;20085;-58
2021/04/03 10:01:11;;;;;;;2.88;0.70;;;;;;;;;;5012272;28;20494;-58
2021/04/03 10:03:37;;;;;;;5.07;0.70;;;;;;;;;;5011439;28;20038;-56
2021/04/03 10:06:04;;;;;;;2.47;0.77;;;;;;;;;;5011776;28;20049;-60
2021/04/03 10:08:30;;;;;;;1.48;0.68;;;;;;;;;;5012489;28;20038;-59
2021/04/03 10:10:56;;;;;;;1.40;0.65;;;;;;;;;;5011961;28;20056;-60
2021/04/03 10:13:23;;;;;;;4.50;1.40;;;;;;;;;;5011892;28;20041;-59
2021/04/03 10:15:49;;;;;;;4.63;0.90;;;;;;;;;;5006505;28;20026;-58
2021/04/03 10:18:15;;;;;;;4.07;1.20;;;;;;;;;;5009268;28;20475;-58
2021/04/03 10:20:43;;;;;;;1.52;0.70;;;;;;;;;;5011083;28;20097;-58
2021/04/03 10:23:09;;;;;;;2.15;0.60;;;;;;;;;;5011238;28;20080;-60
2021/04/03 10:25:35;;;;;;;1.20;0.50;;;;;;;;;;5009519;28;20058;-60
2021/04/03 10:28:01;;;;;;;2.85;0.70;;;;;;;;;;5011528;28;20058;-59
2021/04/03 10:30:27;;;;;;;2.03;0.70;;;;;;;;;;5006049;28;20069;-60
2021/04/03 10:32:53;;;;;;;2.22;0.70;;;;;;;;;;5011993;28;20030;-60
2021/04/03 10:35:19;;;;;;;1.95;0.73;;;;;;;;;;5011659;28;20033;-59
2021/04/03 10:37:45;;;;;;;1.05;0.50;;;;;;;;;;5016046;28;20025;-59
2021/04/03 10:40:11;;;;;;;1.63;0.65;;;;;;;;;;5013521;28;20033;-60
2021/04/03 10:42:37;;;;;;;2.10;0.88;;;;;;;;;;5015005;28;20620;-58
2021/04/03 10:45:03;;;;;;;1.50;0.80;;;;;;;;;;5014789;28;20080;-59
2021/04/03 10:47:29;;;;;;;3.53;0.57;;;;;;;;;;5012037;28;20064;-58
2021/04/03 10:49:55;;;;;;;1.10;0.57;;;;;;;;;;5013956;28;20486;-57
2021/04/03 10:52:22;;;;;;;5.03;0.82;;;;;;;;;;5014035;28;20065;-59
2021/04/03 10:54:48;;;;;;;5.15;0.80;;;;;;;;;;5013599;28;20026;-58
2021/04/03 10:57:14;;;;;;;2.20;0.93;;;;;;;;;;5002402;28;20034;-58
2021/04/03 10:59:41;;;;;;;3.05;0.85;;;;;;;;;;5015208;28;20049;-59
2021/04/03 11:02:07;;;;;;;1.75;0.70;;;;;;;;;;5014898;28;20053;-58
2021/04/03 11:04:33;;;;;;;4.07;0.75;;;;;;;;;;5012321;28;20604;-58
2021/04/03 11:07:01;;;;;;;2.65;0.70;;;;;;;;;;5009815;28;20487;-59
2021/04/03 11:09:27;;;;;;;2.22;0.77;;;;;;;;;;5009917;28;20037;-58
2021/04/03 11:11:53;;;;;;;1.95;0.82;;;;;;;;;;5009908;28;20044;-58
2021/04/03 11:14:19;;;;;;;2.88;0.80;;;;;;;;;;5009541;28;20386;-59
2021/04/03 11:16:45;;;;;;;1.88;0.70;;;;;;;;;;5008499;28;20068;-57
2021/04/03 11:19:11;;;;;;;1.05;0.55;;;;;;;;;;5010223;28;20471;-54
2021/04/03 11:21:37;;;;;;;2.30;0.43;;;;;;;;;;4995291;28;20029;-55
2021/04/03 11:24:03;;;;;;;1.17;0.38;;;;;;;;;;5006588;28;20054;-57
2021/04/03 11:26:29;;;;;;;2.88;0.60;;;;;;;;;;5011474;28;20490;-56
2021/04/03 11:28:55;;;;;;;1.30;0.38;;;;;;;;;;5011964;28;20030;-56
2021/04/03 11:31:21;;;;;;;1.48;0.43;;;;;;;;;;5012339;28;20636;-58
2021/04/03 11:33:47;;;;;;;3.45;0.40;;;;;;;;;;5012853;28;20053;-55
2021/04/03 11:36:13;;;;;;;5.15;1.50;;;;;;;;;;5014237;28;20112;-56
2021/04/03 11:38:39;;;;;;;2.90;0.50;;;;;;;;;;5014395;28;20080;-56
2021/04/03 11:41:05;;;;;;;2.90;0.55;;;;;;;;;;5013317;28;20029;-56
2021/04/03 11:43:31;;;;;;;0.85;0.60;;;;;;;;;;5002187;28;20072;-55
2021/04/03 11:45:57;;;;;;;2.30;0.60;;;;;;;;;;5006617;28;20026;-58
2021/04/03 11:48:23;;;;;;;1.20;0.30;;;;;;;;;;5011200;28;20034;-57
2021/04/03 11:50:49;;;;;;;1.65;0.50;;;;;;;;;;5013304;28;20038;-58
2021/04/03 11:53:15;;;;;;;3.08;0.40;;;;;;;;;;5014024;28;20030;-56
2021/04/03 11:55:41;;;;;;;1.00;0.30;;;;;;;;;;5007980;28;20117;-57
2021/04/03 11:58:08;;;;;;;1.25;0.45;;;;;;;;;;5009899;28;20030;-56
2021/04/03 12:00:34;;;;;;;0.60;0.40;;;;;;;;;;5014390;28;20033;-56
2021/04/03 12:03:00;;;;;;;1.38;0.40;;;;;;;;;;5013553;28;20417;-55
2021/04/03 12:05:26;;;;;;;2.38;0.93;;;;;;;;;;5008742;28;20029;-57
2021/04/03 12:07:52;;;;;;;2.05;0.50;;;;;;;;;;5008141;28;20038;-54
2021/04/03 12:10:18;;;;;;;0.70;0.30;;;;;;;;;;5006988;28;20058;-53
2021/04/03 12:12:44;;;;;;;0.70;0.30;;;;;;;;;;5011495;28;20112;-57
2021/04/03 12:15:11;;;;;;;1.20;0.30;;;;;;;;;;5009843;28;20026;-53
2021/04/03 12:17:38;;;;;;;2.03;0.57;;;;;;;;;;5008167;28;20029;-54
2021/04/03 12:20:05;;;;;;;1.40;0.50;;;;;;;;;;5009456;28;20034;-56
2021/04/03 12:22:31;;;;;;;0.77;0.20;;;;;;;;;;5008563;28;20033;-54
2021/04/03 12:24:57;;;;;;;1.75;0.40;;;;;;;;;;5009528;28;20465;-55
2021/04/03 12:27:23;;;;;;;2.97;0.40;;;;;;;;;;5008013;28;20641;-56
2021/04/03 12:29:50;;;;;;;0.77;0.40;;;;;;;;;;5008584;28;20033;-53
2021/04/03 12:32:16;;;;;;;1.98;0.50;;;;;;;;;;5013442;28;20401;-56
2021/04/03 12:34:42;;;;;;;1.10;0.30;;;;;;;;;;5013361;28;20034;-55
2021/04/03 12:37:09;;;;;;;2.47;0.60;;;;;;;;;;5012826;28;20018;-54
2021/04/03 12:39:35;;;;;;;2.13;0.60;;;;;;;;;;4991891;28;20414;-55
2021/04/03 12:42:01;;;;;;;2.47;0.40;;;;;;;;;;5011118;28;20033;-54
2021/04/03 12:44:27;;;;;;;0.60;0.43;;;;;;;;;;5013160;28;20034;-55
2021/04/03 12:46:53;;;;;;;2.83;0.60;;;;;;;;;;5013381;28;20037;-55
2021/04/03 12:49:19;;;;;;;0.93;0.30;;;;;;;;;;4995161;28;20466;-54
2021/04/03 12:51:45;;;;;;;4.22;0.60;;;;;;;;;;5012863;28;20022;-53
2021/04/03 12:54:11;;;;;;;1.10;0.45;;;;;;;;;;5012160;28;20104;-51
2021/04/03 12:56:37;;;;;;;4.03;0.40;;;;;;;;;;5013431;28;20125;-52
2021/04/03 12:59:04;;;;;;;1.15;0.30;;;;;;;;;;5012665;28;20043;-54
2021/04/03 13:01:30;;;;;;;2.30;0.40;;;;;;;;;;5013565;28;20040;-53
2021/04/03 13:03:56;;;;;;;1.10;0.38;;;;;;;;;;5012755;28;20550;-55
2021/04/03 13:06:22;;;;;;;4.10;0.68;;;;;;;;;;5004354;28;20050;-54
2021/04/03 13:08:48;;;;;;;1.35;0.30;;;;;;;;;;5001483;28;20406;-56
2021/04/03 13:11:14;;;;;;;2.10;0.47;;;;;;;;;;4994311;28;20104;-52
2021/04/03 13:13:40;;;;;;;1.15;0.40;;;;;;;;;;5012400;28;20033;-53
2021/04/03 13:16:06;;;;;;;0.85;0.30;;;;;;;;;;5010735;28;20038;-54
2021/04/03 13:18:32;;;;;;;3.72;0.40;;;;;;;;;;4993094;28;20033;-56
2021/04/03 13:20:59;;;;;;;1.85;0.55;;;;;;;;;;5007973;28;20059;-54
2021/04/03 13:23:25;;;;;;;1.58;0.40;;;;;;;;;;5010128;28;20052;-54
2021/04/03 13:25:51;;;;;;;0.70;0.35;;;;;;;;;;5006119;28;20068;-55
2021/04/03 13:28:18;;;;;;;1.42;0.40;;;;;;;;;;5004265;28;20053;-54
2021/04/03 13:30:44;;;;;;;2.25;0.60;;;;;;;;;;5000071;28;20056;-56
2021/04/03 13:33:10;;;;;;;1.75;0.50;;;;;;;;;;5011229;28;20061;-56
2021/04/03 13:35:36;;;;;;;0.90;0.40;;;;;;;;;;5011479;28;20036;-53
2021/04/03 13:38:02;;;;;;;2.00;0.35;;;;;;;;;;4994070;28;20029;-56
2021/04/03 13:40:28;;;;;;;0.88;0.35;;;;;;;;;;5012413;28;20503;-51
2021/04/03 13:42:54;;;;;;;1.58;0.28;;;;;;;;;;5012479;28;20049;-54
2021/04/03 13:45:20;;;;;;;1.23;0.50;;;;;;;;;;5011931;28;20445;-53
2021/04/03 13:47:46;;;;;;;2.53;0.35;;;;;;;;;;5009652;28;20025;-56
2021/04/03 13:50:12;;;;;;;1.23;0.57;;;;;;;;;;5012340;28;20478;-54
2021/04/03 13:52:38;;;;;;;0.65;0.40;;;;;;;;;;5011517;28;20378;-53
2021/04/03 13:55:04;;;;;;;2.45;0.70;;;;;;;;;;5011394;28;20037;-55
2021/04/03 13:57:32;;;;;;;1.27;0.40;;;;;;;;;;5010446;28;20658;-55
2021/04/03 13:59:58;;;;;;;1.52;0.40;;;;;;;;;;5012257;28;20404;-54
2021/04/03 14:02:24;;;;;;;3.40;0.55;;;;;;;;;;5011436;28;20413;-53
2021/04/03 14:04:50;;;;;;;1.65;0.40;;;;;;;;;;5011728;28;20375;-55
2021/04/03 14:07:16;;;;;;;1.52;0.60;;;;;;;;;;5009483;28;20034;-56
2021/04/03 14:09:42;;;;;;;3.83;0.25;;;;;;;;;;5010516;28;20030;-55
2021/04/03 14:12:09;;;;;;;1.52;0.30;;;;;;;;;;5008633;28;20034;-53
2021/04/03 14:14:35;;;;;;;9.00;0.60;;;;;;;;;;5006352;28;20332;-54
2021/04/03 14:17:01;;;;;;;2.85;0.70;;;;;;;;;;5011482;28;20030;-54
2021/04/03 14:19:27;;;;;;;0.77;0.17;;;;;;;;;;5011806;28;20029;-51
2021/04/03 14:21:53;;;;;;;0.57;0.13;;;;;;;;;;5011816;28;20086;-54
2021/04/03 14:24:19;;;;;;;1.50;0.30;;;;;;;;;;5011712;28;20078;-51
2021/04/03 14:26:45;;;;;;;1.38;0.30;;;;;;;;;;5010419;28;20072;-55
2021/04/03 14:29:11;;;;;;;1.38;0.28;;;;;;;;;;5010301;28;20470;-55
2021/04/03 14:31:40;;;;;;;0.65;0.20;;;;;;;;;;5010232;28;20418;-55
2021/04/03 14:34:07;;;;;;;1.50;0.80;;;;;;;;;;5011632;28;20114;-52
2021/04/03 14:36:33;;;;;;;1.05;0.20;;;;;;;;;;5011223;28;20029;-54
2021/04/03 14:38:59;;;;;;;3.08;0.35;;;;;;;;;;5011737;28;20066;-52
2021/04/03 14:41:25;;;;;;;4.65;0.40;;;;;;;;;;5011413;28;20033;-55